Time;durP1;ratioP1;P1;durP2;ratioP2;P2;SDS_P1;SDS_P2;PMS_P1;PMS_P2;Temp;Humidity;BMP_temperature;BMP_pressure;BME280_temperature;BME280_humidity;BME280_pressure;Samples;Min_cycle;Max_cycle;Signal;HPM_P1;HPM_P2
2022/04/17 00:00:21;;;;;;;101.38;49.35;;;13.00;66.40;;;;;;5100342;28;20035;-66
2022/04/17 00:02:46;;;;;;;102.90;48.25;;;12.90;66.40;;;;;;5094218;28;20490;-66
2022/04/17 00:05:12;;;;;;;101.60;49.03;;;12.90;66.50;;;;;;5110867;28;20035;-66
2022/04/17 00:07:39;;;;;;;104.75;51.85;;;12.80;66.70;;;;;;5105854;28;20102;-66
2022/04/17 00:10:05;;;;;;;100.35;50.38;;;12.80;66.60;;;;;;5102811;28;20102;-66
2022/04/17 00:12:31;;;;;;;101.25;50.10;;;12.80;66.80;;;;;;5106629;28;20039;-66
2022/04/17 00:15:00;;;;;;;103.18;48.65;;;12.70;67.30;;;;;;5100002;28;20028;-66
2022/04/17 00:17:26;;;;;;;105.15;53.30;;;12.80;67.50;;;;;;5106489;28;20020;-66
2022/04/17 00:19:54;;;;;;;106.45;49.15;;;12.70;67.20;;;;;;5101589;28;20038;-66
2022/04/17 00:22:20;;;;;;;112.28;51.88;;;12.70;67.30;;;;;;5111094;28;20047;-66
2022/04/17 00:24:46;;;;;;;112.80;53.53;;;12.60;68.10;;;;;;5099322;28;20036;-66
2022/04/17 00:27:11;;;;;;;103.97;52.25;;;12.60;67.70;;;;;;5108974;28;20034;-66
2022/04/17 00:29:37;;;;;;;103.30;52.50;;;12.60;67.70;;;;;;5103555;28;20073;-66
2022/04/17 00:32:03;;;;;;;98.38;51.13;;;12.50;67.60;;;;;;5105064;28;20391;-66
2022/04/17 00:34:30;;;;;;;103.13;52.10;;;12.50;67.30;;;;;;5105219;28;20035;-66
2022/04/17 00:37:00;;;;;;;100.68;49.95;;;12.50;67.50;;;;;;5111187;28;20034;-66
2022/04/17 00:39:29;;;;;;;97.95;48.78;;;12.40;67.70;;;;;;5110395;28;20053;-66
2022/04/17 00:41:55;;;;;;;92.68;43.22;;;12.40;67.80;;;;;;5110074;28;20382;-66
2022/04/17 00:44:20;;;;;;;96.72;50.80;;;12.40;67.90;;;;;;5110859;28;20491;-66
2022/04/17 00:46:46;;;;;;;95.47;48.88;;;12.30;68.20;;;;;;5108934;28;20027;-66
2022/04/17 00:49:12;;;;;;;93.15;46.90;;;12.30;67.80;;;;;;5106912;28;20443;-66
2022/04/17 00:51:38;;;;;;;96.05;45.97;;;12.30;68.30;;;;;;5111076;28;20441;-66
2022/04/17 00:54:06;;;;;;;92.20;46.00;;;12.20;68.00;;;;;;5111149;28;20028;-66
2022/04/17 00:56:32;;;;;;;94.63;44.17;;;12.20;67.70;;;;;;5109735;28;20027;-65
2022/04/17 00:58:58;;;;;;;94.28;45.03;;;12.20;67.70;;;;;;5110869;28;20532;-66
2022/04/17 01:01:24;;;;;;;91.57;46.53;;;12.20;67.60;;;;;;5110558;28;20028;-66
2022/04/17 01:03:50;;;;;;;94.88;45.17;;;12.10;67.50;;;;;;5108447;28;20046;-66
2022/04/17 01:06:17;;;;;;;86.13;44.17;;;12.10;67.40;;;;;;5108166;28;20032;-66
2022/04/17 01:08:42;;;;;;;91.10;44.58;;;12.10;67.30;;;;;;5110869;28;20075;-66
2022/04/17 01:11:10;;;;;;;96.70;45.10;;;12.10;67.10;;;;;;5110265;28;20044;-66
2022/04/17 01:13:39;;;;;;;77.57;42.85;;;12.00;67.10;;;;;;5110549;28;20070;-66
2022/04/17 01:16:06;;;;;;;82.00;41.17;;;12.00;67.20;;;;;;5109903;28;20060;-67
2022/04/17 01:19:01;;;;;;;86.18;43.85;;;12.00;67.10;;;;;;5113644;28;20093;-67
2022/04/17 01:21:31;;;;;;;78.47;40.38;;;11.90;67.10;;;;;;5114516;27;20035;-67
2022/04/17 01:27:00;;;;;;;94.22;42.25;;;11.90;67.20;;;;;;5111063;28;20035;-67
2022/04/17 01:29:37;;;;;;;80.95;40.45;;;11.90;67.40;;;;;;5110332;28;20031;-67
2022/04/17 01:32:05;;;;;;;86.63;40.03;;;11.80;67.40;;;;;;5110165;28;20035;-67
2022/04/17 01:34:31;;;;;;;77.18;39.47;;;11.80;67.50;;;;;;5113996;28;20483;-67
2022/04/17 01:36:58;;;;;;;77.97;39.63;;;11.70;68.00;;;;;;5113892;28;20081;-67
2022/04/17 01:39:24;;;;;;;82.38;39.35;;;11.70;67.90;;;;;;5104611;28;20047;-67
2022/04/17 01:41:54;;;;;;;81.78;41.70;;;11.70;67.90;;;;;;5114053;28;20032;-66
2022/04/17 01:44:21;;;;;;;87.40;41.50;;;11.70;67.80;;;;;;5113470;28;20028;-67
2022/04/17 01:46:47;;;;;;;75.63;39.58;;;11.70;67.80;;;;;;5111045;27;20387;-67
2022/04/17 01:49:17;;;;;;;76.93;39.90;;;11.60;67.80;;;;;;5107412;28;20039;-67
2022/04/17 01:51:45;;;;;;;89.55;40.53;;;11.60;67.90;;;;;;5102597;28;20027;-67
2022/04/17 01:54:18;;;;;;;75.82;39.83;;;11.60;68.00;;;;;;5113774;28;20032;-66
2022/04/17 01:56:47;;;;;;;77.13;37.85;;;11.60;68.00;;;;;;5101552;28;20089;-66
2022/04/17 01:59:14;;;;;;;80.30;37.22;;;11.60;68.20;;;;;;5111019;28;20398;-67
2022/04/17 02:01:40;;;;;;;74.90;37.17;;;11.50;68.40;;;;;;5109205;28;20028;-67
2022/04/17 02:04:07;;;;;;;81.93;37.15;;;11.50;68.60;;;;;;5101313;28;20031;-67
2022/04/17 02:06:34;;;;;;;70.55;34.88;;;11.50;68.70;;;;;;5099981;28;20115;-68
2022/04/17 02:09:00;;;;;;;64.68;33.10;;;11.40;68.70;;;;;;5106912;28;20087;-66
2022/04/17 02:11:27;;;;;;;63.05;32.90;;;11.40;68.70;;;;;;5099395;28;20024;-66
2022/04/17 02:13:54;;;;;;;70.90;35.08;;;11.40;68.60;;;;;;5109698;28;20038;-67
2022/04/17 02:16:20;;;;;;;71.07;35.33;;;11.40;68.60;;;;;;5102134;28;20024;-66
2022/04/17 02:18:49;;;;;;;69.03;34.05;;;11.30;68.30;;;;;;5111160;28;20039;-67
2022/04/17 02:21:17;;;;;;;62.80;31.95;;;11.30;68.20;;;;;;5098936;28;20086;-67
2022/04/17 02:23:46;;;;;;;65.28;31.17;;;11.30;68.40;;;;;;5106137;28;20024;-66
2022/04/17 02:26:13;;;;;;;70.07;31.10;;;11.30;68.60;;;;;;5101414;28;20035;-66
2022/04/17 02:28:40;;;;;;;62.30;30.08;;;11.20;68.80;;;;;;5105379;28;20065;-66
2022/04/17 02:31:08;;;;;;;68.28;31.40;;;11.20;69.10;;;;;;5106361;28;20028;-67
2022/04/17 02:33:36;;;;;;;58.35;29.50;;;11.20;68.90;;;;;;5092252;28;20055;-66
2022/04/17 02:36:01;;;;;;;55.15;27.90;;;11.20;69.00;;;;;;5092722;28;20081;-67
2022/04/17 02:38:27;;;;;;;49.33;25.35;;;11.10;69.10;;;;;;5092342;28;20040;-67
2022/04/17 02:40:54;;;;;;;57.40;25.98;;;11.10;69.10;;;;;;5102462;28;20027;-66
2022/04/17 02:43:20;;;;;;;46.45;25.98;;;11.10;69.20;;;;;;5112690;28;20038;-66
2022/04/17 02:45:46;;;;;;;46.20;23.60;;;11.10;69.30;;;;;;5113010;28;20023;-67
2022/04/17 02:48:12;;;;;;;47.80;23.75;;;11.00;69.50;;;;;;5111777;28;20123;-67
2022/04/17 02:50:39;;;;;;;39.00;21.50;;;11.00;69.70;;;;;;5112773;28;20489;-67
2022/04/17 02:53:06;;;;;;;39.05;21.10;;;11.00;69.90;;;;;;5112605;28;20464;-66
2022/04/17 02:55:31;;;;;;;40.20;19.38;;;11.00;69.50;;;;;;5098039;28;20070;-66
2022/04/17 02:57:57;;;;;;;39.55;19.52;;;10.90;69.50;;;;;;5112325;28;20079;-66
2022/04/17 03:00:24;;;;;;;33.20;18.35;;;10.90;69.30;;;;;;5098848;28;20034;-66
2022/04/17 03:05:37;;;;;;;35.50;17.02;;;10.90;69.20;;;;;;5112251;28;20063;-66
2022/04/17 03:08:16;;;;;;;29.70;16.05;;;10.90;69.20;;;;;;5099110;28;20028;-66
2022/04/17 03:10:44;;;;;;;29.55;15.40;;;10.90;69.30;;;;;;5111666;28;20036;-66
2022/04/17 03:13:10;;;;;;;29.63;15.55;;;10.80;69.50;;;;;;5098939;28;20027;-67
2022/04/17 03:15:38;;;;;;;33.97;16.70;;;10.80;69.50;;;;;;5111689;28;20045;-67
2022/04/17 03:18:10;;;;;;;33.40;15.07;;;10.80;69.50;;;;;;5108244;28;20040;-67
2022/04/17 03:20:37;;;;;;;28.98;13.82;;;10.80;69.70;;;;;;5102660;28;20027;-67
2022/04/17 03:23:06;;;;;;;29.90;14.35;;;10.80;70.50;;;;;;5103587;28;20050;-66
2022/04/17 03:25:32;;;;;;;26.15;13.57;;;10.70;70.40;;;;;;5110064;28;20067;-66
2022/04/17 03:27:58;;;;;;;28.10;13.07;;;10.70;70.40;;;;;;5095120;28;20055;-67
2022/04/17 03:30:24;;;;;;;27.15;12.35;;;10.70;70.50;;;;;;5091401;28;20036;-67
2022/04/17 03:32:51;;;;;;;24.00;11.93;;;10.70;70.60;;;;;;5095402;28;20054;-67
2022/04/17 03:35:18;;;;;;;24.38;13.48;;;10.70;70.40;;;;;;5111903;28;20036;-66
2022/04/17 03:37:47;;;;;;;22.17;11.63;;;10.60;70.10;;;;;;5110899;28;20487;-67
2022/04/17 03:40:15;;;;;;;22.90;11.60;;;10.60;70.30;;;;;;5102584;28;20085;-67
2022/04/17 03:42:41;;;;;;;25.75;11.75;;;10.60;70.50;;;;;;5111536;28;20455;-67
2022/04/17 03:45:08;;;;;;;24.13;10.77;;;10.60;70.60;;;;;;5099687;28;20032;-67
2022/04/17 03:47:35;;;;;;;22.65;12.30;;;10.60;70.90;;;;;;5109974;28;20478;-67
2022/04/17 03:50:03;;;;;;;26.20;10.75;;;10.60;71.20;;;;;;5111704;28;20043;-67
2022/04/17 03:52:44;;;;;;;22.50;10.90;;;10.60;71.60;;;;;;5097658;28;20489;-67
2022/04/17 03:55:11;;;;;;;21.38;11.40;;;10.60;72.10;;;;;;5108915;28;20520;-67
2022/04/17 03:57:38;;;;;;;25.25;10.95;;;10.50;72.30;;;;;;5103145;28;20063;-67
2022/04/17 04:00:06;;;;;;;23.08;10.55;;;10.50;72.20;;;;;;5092165;28;20040;-67
2022/04/17 04:02:39;;;;;;;22.17;10.43;;;10.50;72.30;;;;;;5111668;28;20130;-67
2022/04/17 04:05:07;;;;;;;20.73;10.52;;;10.50;72.70;;;;;;5110804;28;20108;-67
2022/04/17 04:07:34;;;;;;;34.42;12.25;;;10.50;72.90;;;;;;5100946;28;20024;-67
2022/04/17 04:09:59;;;;;;;22.63;10.82;;;10.40;73.10;;;;;;5090794;28;20032;-67
2022/04/17 04:12:26;;;;;;;26.02;12.93;;;10.40;74.00;;;;;;5090683;28;20028;-67
2022/04/17 04:14:51;;;;;;;24.35;12.25;;;10.40;73.70;;;;;;5104225;28;20071;-67
2022/04/17 04:17:17;;;;;;;23.60;11.38;;;10.40;73.70;;;;;;5102696;28;20067;-67
2022/04/17 04:19:42;;;;;;;22.85;11.73;;;10.30;73.70;;;;;;5105154;28;20123;-67
2022/04/17 04:22:08;;;;;;;23.08;11.65;;;10.40;74.40;;;;;;5103393;28;20479;-67
2022/04/17 04:24:34;;;;;;;28.08;12.80;;;10.40;74.30;;;;;;5097835;28;20111;-67
2022/04/17 04:29:45;;;;;;;26.85;12.98;;;10.30;74.80;;;;;;5090495;28;20027;-67
2022/04/17 04:32:10;;;;;;;22.17;11.05;;;10.20;75.20;;;;;;5102869;28;20024;-67
2022/04/17 04:34:36;;;;;;;23.33;12.10;;;10.30;75.50;;;;;;5105322;28;20054;-67
2022/04/17 04:37:02;;;;;;;26.40;12.50;;;10.20;75.40;;;;;;5102200;28;20035;-67
2022/04/17 04:39:28;;;;;;;29.38;12.98;;;10.20;75.80;;;;;;5111307;28;20028;-66
2022/04/17 04:41:53;;;;;;;28.73;13.70;;;10.20;75.50;;;;;;5097967;28;20036;-67
2022/04/17 04:44:19;;;;;;;31.92;14.60;;;10.20;75.10;;;;;;5109841;28;20089;-67
2022/04/17 04:46:45;;;;;;;31.15;13.50;;;10.10;74.90;;;;;;5111310;28;20035;-67
2022/04/17 04:51:56;;;;;;;35.17;14.45;;;10.10;74.70;;;;;;5113420;28;20038;-66
2022/04/17 04:54:21;;;;;;;28.67;13.65;;;10.10;74.50;;;;;;5114408;28;20541;-67
2022/04/17 04:56:47;;;;;;;28.15;14.70;;;10.10;74.50;;;;;;5100951;28;20071;-66
2022/04/17 04:59:12;;;;;;;32.38;15.57;;;10.00;74.50;;;;;;5105347;28;20047;-67
2022/04/17 05:01:41;;;;;;;35.67;16.23;;;10.00;74.60;;;;;;5093786;28;20110;-66
2022/04/17 05:04:07;;;;;;;36.90;16.60;;;10.00;74.50;;;;;;5094436;28;20089;-67
2022/04/17 05:06:32;;;;;;;34.33;16.73;;;9.90;74.80;;;;;;5111650;28;20425;-66
2022/04/17 05:08:59;;;;;;;26.63;13.40;;;9.90;74.70;;;;;;5113199;28;20031;-67
2022/04/17 05:11:24;;;;;;;35.25;15.60;;;9.90;75.10;;;;;;5114355;28;20034;-66
2022/04/17 05:13:50;;;;;;;35.38;15.45;;;9.80;75.20;;;;;;5102855;28;20383;-67
2022/04/17 05:16:16;;;;;;;35.35;17.75;;;9.80;75.40;;;;;;5107269;28;20024;-67
2022/04/17 05:18:42;;;;;;;33.63;13.88;;;9.80;75.20;;;;;;5094030;28;20471;-66
2022/04/17 05:21:08;;;;;;;31.00;15.02;;;9.80;75.20;;;;;;5112016;28;20397;-67
2022/04/17 05:23:37;;;;;;;34.13;15.55;;;9.70;75.10;;;;;;5113991;28;20136;-67
2022/04/17 05:26:03;;;;;;;28.77;14.10;;;9.70;75.30;;;;;;5114019;28;20173;-67
2022/04/17 05:28:30;;;;;;;30.38;14.93;;;9.70;75.50;;;;;;5107010;28;20035;-67
2022/04/17 05:30:56;;;;;;;31.80;16.35;;;9.70;75.60;;;;;;5107729;28;20023;-67
2022/04/17 05:33:23;;;;;;;32.08;15.77;;;9.80;75.70;;;;;;5114579;28;20039;-67
2022/04/17 05:35:50;;;;;;;34.35;14.93;;;9.70;75.60;;;;;;5114114;28;20039;-67
2022/04/17 05:38:16;;;;;;;36.13;17.63;;;9.70;75.80;;;;;;5113414;28;20043;-66
2022/04/17 05:40:50;;;;;;;30.48;14.38;;;9.70;75.70;;;;;;5114110;28;20032;-67
2022/04/17 05:43:17;;;;;;;36.00;15.27;;;9.70;76.00;;;;;;5113538;28;20036;-67
2022/04/17 05:45:43;;;;;;;34.72;15.20;;;9.70;76.50;;;;;;5114027;28;20035;-67
2022/04/17 05:48:09;;;;;;;26.25;14.57;;;9.70;76.90;;;;;;5102870;28;20094;-67
2022/04/17 05:50:37;;;;;;;27.33;12.48;;;9.70;77.70;;;;;;5110692;28;20019;-66
2022/04/17 05:53:03;;;;;;;27.42;10.60;;;9.70;78.10;;;;;;5113790;28;20058;-67
2022/04/17 05:55:29;;;;;;;26.83;12.98;;;9.80;80.00;;;;;;5109140;28;20031;-67
2022/04/17 05:57:54;;;;;;;23.20;11.63;;;9.70;79.80;;;;;;5112669;28;20043;-67
2022/04/17 06:00:21;;;;;;;26.33;12.48;;;9.70;79.90;;;;;;5113790;28;20056;-67
2022/04/17 06:02:48;;;;;;;28.10;12.80;;;9.70;80.70;;;;;;5113129;28;20066;-67
2022/04/17 06:05:15;;;;;;;26.10;12.15;;;9.70;81.40;;;;;;5112802;28;20080;-67
2022/04/17 06:07:41;;;;;;;31.27;13.75;;;9.70;81.20;;;;;;5113621;28;20060;-67
2022/04/17 06:10:09;;;;;;;22.65;12.23;;;9.70;81.40;;;;;;5107533;27;20036;-67
2022/04/17 06:12:35;;;;;;;23.77;12.77;;;9.80;80.90;;;;;;5106200;28;20077;-67
2022/04/17 06:15:01;;;;;;;25.25;12.60;;;9.80;80.30;;;;;;5113614;28;20035;-67
2022/04/17 06:17:27;;;;;;;20.80;10.38;;;9.80;80.30;;;;;;5112918;28;20027;-67
2022/04/17 06:19:52;;;;;;;17.02;8.27;;;9.80;81.00;;;;;;5091991;28;20044;-67
2022/04/17 06:22:18;;;;;;;24.70;11.32;;;9.80;81.80;;;;;;5107182;28;20066;-67
2022/04/17 06:24:44;;;;;;;25.02;11.95;;;9.90;82.30;;;;;;5112482;28;20112;-67
2022/04/17 06:27:10;;;;;;;32.03;12.93;;;9.90;82.30;;;;;;5112836;28;20026;-66
2022/04/17 06:29:36;;;;;;;15.43;7.88;;;9.90;82.30;;;;;;5096144;28;20020;-66
2022/04/17 06:32:02;;;;;;;27.27;12.63;;;9.90;82.10;;;;;;5103523;28;20110;-66
2022/04/17 06:34:28;;;;;;;26.77;12.52;;;9.90;81.60;;;;;;5112195;28;20112;-67
2022/04/17 06:36:54;;;;;;;25.17;12.18;;;10.00;81.10;;;;;;5113144;28;20641;-67
2022/04/17 06:39:19;;;;;;;28.42;14.38;;;10.00;80.90;;;;;;5103641;28;20038;-67
2022/04/17 06:41:45;;;;;;;24.15;12.38;;;10.00;80.80;;;;;;5111583;28;20378;-66
2022/04/17 06:44:12;;;;;;;18.58;10.38;;;10.10;80.70;;;;;;5108050;27;20552;-67
2022/04/17 06:46:39;;;;;;;23.05;12.27;;;10.10;80.90;;;;;;5103517;28;20574;-67
2022/04/17 06:49:07;;;;;;;27.90;11.98;;;10.10;81.20;;;;;;5112578;28;20042;-67
2022/04/17 06:51:33;;;;;;;22.83;11.48;;;10.10;81.20;;;;;;5111533;27;20046;-67
2022/04/17 06:53:58;;;;;;;25.20;12.68;;;10.10;81.10;;;;;;5109549;28;20118;-66
2022/04/17 06:56:24;;;;;;;10.95;6.15;;;10.10;80.90;;;;;;5105548;28;20115;-66
2022/04/17 06:58:53;;;;;;;21.30;8.32;;;10.20;81.00;;;;;;5112535;28;20517;-66
2022/04/17 07:01:19;;;;;;;22.45;10.65;;;10.20;81.10;;;;;;5111626;28;20076;-66
2022/04/17 07:03:45;;;;;;;13.55;6.65;;;10.20;81.80;;;;;;5104826;28;20024;-66
2022/04/17 07:06:11;;;;;;;13.80;6.85;;;10.30;82.00;;;;;;5092257;28;20038;-66
2022/04/17 07:08:36;;;;;;;22.65;10.27;;;10.30;81.70;;;;;;5099437;28;20027;-67
2022/04/17 07:11:02;;;;;;;22.70;11.05;;;10.30;81.90;;;;;;5110855;28;20027;-67
2022/04/17 07:13:28;;;;;;;22.40;12.07;;;10.30;81.60;;;;;;5094057;28;20032;-67
2022/04/17 07:15:54;;;;;;;28.27;13.57;;;10.40;81.30;;;;;;5088723;28;20442;-67
2022/04/17 07:18:19;;;;;;;27.42;11.45;;;10.40;81.00;;;;;;5090625;28;20040;-66
2022/04/17 07:20:45;;;;;;;28.50;12.85;;;10.40;80.90;;;;;;5090461;28;20020;-67
2022/04/17 07:23:11;;;;;;;20.95;9.93;;;10.50;81.00;;;;;;5092359;28;20035;-67
2022/04/17 07:25:37;;;;;;;22.20;12.40;;;10.60;80.80;;;;;;5090408;28;20016;-66
2022/04/17 07:28:04;;;;;;;24.50;12.02;;;10.60;80.50;;;;;;5094793;28;20057;-66
2022/04/17 07:30:36;;;;;;;25.48;11.80;;;10.70;80.30;;;;;;5093037;28;20052;-67
2022/04/17 07:33:02;;;;;;;25.95;14.13;;;10.70;80.10;;;;;;5092063;28;20032;-66
2022/04/17 07:35:29;;;;;;;28.30;12.02;;;10.70;79.90;;;;;;5092361;28;20066;-67
2022/04/17 07:37:57;;;;;;;21.83;11.35;;;10.70;79.70;;;;;;5087917;28;20044;-67
2022/04/17 07:40:26;;;;;;;24.60;10.93;;;10.80;79.70;;;;;;5091504;28;20577;-67
2022/04/17 07:42:53;;;;;;;20.45;10.93;;;10.80;79.40;;;;;;5089517;28;20525;-67
2022/04/17 07:45:20;;;;;;;24.02;11.50;;;10.90;79.30;;;;;;5093894;28;20057;-68
2022/04/17 07:47:50;;;;;;;28.63;9.43;;;10.90;79.30;;;;;;5088411;28;20023;-67
2022/04/17 07:50:23;;;;;;;21.52;10.60;;;11.00;79.00;;;;;;5090338;28;20080;-67
2022/04/17 07:52:49;;;;;;;19.97;10.03;;;11.00;78.90;;;;;;5093539;28;20035;-66
2022/04/17 07:55:16;;;;;;;25.73;11.18;;;11.10;79.20;;;;;;5097558;28;20027;-66
2022/04/17 07:58:01;;;;;;;15.75;9.38;;;11.10;79.00;;;;;;5096907;28;20558;-66
2022/04/17 08:00:28;;;;;;;20.30;10.80;;;11.10;79.00;;;;;;5090209;28;20032;-66
2022/04/17 08:02:55;;;;;;;20.30;10.80;;;11.20;79.00;;;;;;5094753;28;20047;-67
2022/04/17 08:05:24;;;;;;;12.55;7.15;;;11.20;79.00;;;;;;5094825;28;20032;-68
2022/04/17 08:07:51;;;;;;;18.88;8.55;;;11.20;79.60;;;;;;5095015;28;20369;-68
2022/04/17 08:10:17;;;;;;;20.73;9.80;;;11.30;81.00;;;;;;5097159;28;20031;-69
2022/04/17 08:12:43;;;;;;;19.27;9.77;;;11.30;80.80;;;;;;5094313;28;20031;-69
2022/04/17 08:15:09;;;;;;;16.38;8.13;;;11.40;80.90;;;;;;5093556;28;20038;-68
2022/04/17 08:17:35;;;;;;;14.07;7.85;;;11.40;79.90;;;;;;5092797;28;20023;-68
2022/04/17 08:20:01;;;;;;;14.90;7.47;;;11.50;80.50;;;;;;5090294;28;20040;-69
2022/04/17 08:22:26;;;;;;;14.32;7.53;;;11.50;80.70;;;;;;5090620;28;20028;-66
2022/04/17 08:24:52;;;;;;;14.07;7.68;;;11.60;80.40;;;;;;5093285;28;20050;-66
2022/04/17 08:27:18;;;;;;;13.88;7.65;;;11.60;80.80;;;;;;5092592;28;20032;-65
2022/04/17 08:29:46;;;;;;;13.88;7.28;;;11.70;80.50;;;;;;5100672;28;20043;-66
2022/04/17 08:32:12;;;;;;;11.23;6.22;;;11.70;80.30;;;;;;5096490;28;20630;-66
2022/04/17 08:34:40;;;;;;;11.40;5.65;;;11.80;80.20;;;;;;5097459;28;20063;-66
2022/04/17 08:37:09;;;;;;;14.35;6.70;;;11.90;81.60;;;;;;5097270;28;20467;-67
2022/04/17 08:39:35;;;;;;;11.18;6.20;;;11.90;81.70;;;;;;5100114;28;20067;-67
2022/04/17 08:42:02;;;;;;;17.60;6.05;;;11.90;81.90;;;;;;5095261;28;20063;-65
2022/04/17 08:44:27;;;;;;;13.55;7.28;;;12.00;82.20;;;;;;5102296;28;20452;-65
2022/04/17 08:46:54;;;;;;;15.02;6.80;;;12.10;82.30;;;;;;5098267;28;20048;-66
2022/04/17 08:49:20;;;;;;;13.18;6.57;;;12.10;81.90;;;;;;5095135;28;20073;-65
2022/04/17 08:51:48;;;;;;;10.63;6.18;;;12.20;81.00;;;;;;5092510;28;20040;-65
2022/04/17 08:54:15;;;;;;;10.82;6.15;;;12.20;80.40;;;;;;5093964;28;20034;-66
2022/04/17 08:56:41;;;;;;;10.75;5.68;;;12.30;79.90;;;;;;5102302;28;20043;-68
2022/04/17 08:59:06;;;;;;;14.20;6.40;;;12.40;80.00;;;;;;5103543;28;20422;-66
2022/04/17 09:01:41;;;;;;;13.65;6.22;;;12.40;79.20;;;;;;5111576;28;20080;-65
2022/04/17 09:04:07;;;;;;;13.48;5.80;;;12.50;78.30;;;;;;5111719;28;20042;-66
2022/04/17 09:06:35;;;;;;;9.40;5.35;;;12.60;79.20;;;;;;5102749;28;20040;-66
2022/04/17 09:09:06;;;;;;;8.27;3.53;;;12.70;79.10;;;;;;5104698;28;20024;-65
2022/04/17 09:11:33;;;;;;;11.07;5.70;;;12.70;79.40;;;;;;5114716;28;20024;-66
2022/04/17 09:14:01;;;;;;;4.05;2.78;;;12.80;79.30;;;;;;5102552;28;20103;-66
2022/04/17 09:16:38;;;;;;;10.18;4.55;;;12.80;80.90;;;;;;5095602;28;20471;-65
2022/04/17 09:19:15;;;;;;;14.25;5.68;;;12.90;80.70;;;;;;5102738;28;20040;-67
2022/04/17 09:21:41;;;;;;;6.15;4.15;;;12.90;79.90;;;;;;5108082;28;20098;-66
2022/04/17 09:24:15;;;;;;;11.82;4.97;;;12.90;81.80;;;;;;5109949;28;20502;-66
2022/04/17 09:26:52;;;;;;;15.32;5.70;;;12.90;80.30;;;;;;5103585;28;20592;-67
2022/04/17 09:29:22;;;;;;;9.23;5.78;;;13.00;79.70;;;;;;5103171;28;20043;-67
2022/04/17 09:32:11;;;;;;;11.18;4.57;;;13.00;78.90;;;;;;5104208;28;20114;-67
2022/04/17 09:34:50;;;;;;;9.52;5.45;;;13.10;80.10;;;;;;5103787;28;20031;-67
2022/04/17 09:37:15;;;;;;;9.15;4.90;;;13.10;79.20;;;;;;5102894;27;20051;-66
2022/04/17 09:39:42;;;;;;;6.20;3.33;;;13.20;80.70;;;;;;5104557;28;20067;-66
2022/04/17 09:42:07;;;;;;;8.80;3.90;;;13.20;81.20;;;;;;5113362;28;20039;-70
2022/04/17 09:44:47;;;;;;;11.32;6.10;;;13.20;82.60;;;;;;5102924;28;20035;-67
2022/04/17 09:47:29;;;;;;;8.20;4.75;;;13.20;81.20;;;;;;5110791;28;20859;-66
2022/04/17 09:50:00;;;;;;;10.52;5.95;;;13.20;81.10;;;;;;5092842;28;20047;-68
2022/04/17 09:52:27;;;;;;;8.38;4.50;;;13.30;79.60;;;;;;5112900;28;20026;-67
2022/04/17 09:54:53;;;;;;;8.90;5.25;;;13.30;78.40;;;;;;5104567;28;20123;-66
2022/04/17 09:57:25;;;;;;;9.90;5.32;;;13.40;78.60;;;;;;5113149;28;20035;-66
2022/04/17 09:59:51;;;;;;;6.65;1.95;;;13.50;76.80;;;;;;5113732;28;20133;-66
2022/04/17 10:02:19;;;;;;;9.35;5.32;;;13.60;80.50;;;;;;5113460;28;20475;-66
2022/04/17 10:04:45;;;;;;;8.13;4.53;;;13.60;80.70;;;;;;5112750;28;20479;-66
2022/04/17 10:07:11;;;;;;;8.95;5.15;;;13.50;80.00;;;;;;5104648;28;20157;-67
2022/04/17 10:09:38;;;;;;;12.20;5.50;;;13.60;78.50;;;;;;5105547;28;20221;-67
2022/04/17 10:12:05;;;;;;;9.75;4.50;;;13.60;77.70;;;;;;5100997;28;20539;-67
2022/04/17 10:14:31;;;;;;;8.00;4.47;;;13.70;79.50;;;;;;5112700;28;20046;-67
2022/04/17 10:17:00;;;;;;;8.95;4.18;;;13.70;79.50;;;;;;5113675;28;20467;-67
2022/04/17 10:19:27;;;;;;;12.27;5.63;;;13.80;78.40;;;;;;5112911;28;20122;-67
2022/04/17 10:21:56;;;;;;;8.13;4.07;;;13.80;76.80;;;;;;5112851;28;20856;-67
2022/04/17 10:24:22;;;;;;;7.13;3.53;;;13.90;76.50;;;;;;5105765;28;20032;-66
2022/04/17 10:26:52;;;;;;;9.85;4.95;;;14.00;78.00;;;;;;5093552;28;20024;-66
2022/04/17 10:29:36;;;;;;;7.82;4.65;;;14.00;76.80;;;;;;5107599;28;20031;-68
2022/04/17 10:32:20;;;;;;;7.82;4.68;;;14.10;76.20;;;;;;5106612;28;20111;-67
2022/04/17 10:35:13;;;;;;;12.30;5.20;;;14.20;77.20;;;;;;5103575;28;20033;-66
2022/04/17 10:38:24;;;;;;;8.65;3.67;;;14.20;77.70;;;;;;5096567;28;20028;-67
2022/04/17 10:40:56;;;;;;;5.40;2.90;;;14.30;79.30;;;;;;5059737;28;20054;-67
2022/04/17 10:43:22;;;;;;;6.85;3.58;;;14.30;80.90;;;;;;5105284;28;20084;-67
2022/04/17 10:46:06;;;;;;;7.35;4.07;;;14.40;79.30;;;;;;5100770;28;20027;-67
2022/04/17 10:48:43;;;;;;;8.82;4.13;;;14.30;79.00;;;;;;5097084;28;20020;-70
2022/04/17 10:51:19;;;;;;;10.77;4.40;;;14.40;78.00;;;;;;5101271;28;20081;-69
2022/04/17 10:54:03;;;;;;;10.23;4.63;;;14.50;76.60;;;;;;5104188;28;20024;-68
2022/04/17 10:56:33;;;;;;;8.63;3.08;;;14.60;75.60;;;;;;5100643;28;20044;-68
2022/04/17 10:59:00;;;;;;;9.90;4.47;;;14.70;76.00;;;;;;5098611;28;20043;-68
2022/04/17 11:01:44;;;;;;;11.40;4.43;;;14.80;74.90;;;;;;5105345;28;20035;-67
2022/04/17 11:04:27;;;;;;;9.00;4.78;;;14.90;74.10;;;;;;5101443;28;20540;-67
2022/04/17 11:07:09;;;;;;;7.53;3.90;;;14.90;74.20;;;;;;5093334;28;20093;-67
2022/04/17 11:09:42;;;;;;;7.97;4.60;;;15.00;75.40;;;;;;5098053;28;20265;-67
2022/04/17 11:12:29;;;;;;;8.75;3.85;;;15.10;75.50;;;;;;5097396;28;20028;-67
2022/04/17 11:15:17;;;;;;;8.52;3.65;;;15.10;75.80;;;;;;5092258;28;20063;-67
2022/04/17 11:17:43;;;;;;;13.43;3.88;;;15.20;75.10;;;;;;5091762;28;20080;-67
2022/04/17 11:20:10;;;;;;;10.57;4.75;;;15.20;76.60;;;;;;5090831;28;20031;-68
2022/04/17 11:22:36;;;;;;;8.65;3.80;;;15.30;75.20;;;;;;5091587;28;20024;-68
2022/04/17 11:25:04;;;;;;;9.40;4.05;;;15.30;74.40;;;;;;5093888;28;20036;-68
2022/04/17 11:27:46;;;;;;;8.77;3.80;;;15.40;72.90;;;;;;5093171;28;20020;-67
2022/04/17 11:30:18;;;;;;;7.53;4.57;;;15.50;72.30;;;;;;5092224;28;20028;-65
2022/04/17 11:32:43;;;;;;;7.63;4.15;;;15.50;72.20;;;;;;5088714;28;20107;-66
2022/04/17 11:35:11;;;;;;;6.78;3.17;;;15.50;71.80;;;;;;5089130;28;20498;-66
2022/04/17 11:37:37;;;;;;;7.75;4.30;;;15.60;72.00;;;;;;5096669;28;20486;-67
2022/04/17 11:40:12;;;;;;;6.15;3.40;;;15.60;70.60;;;;;;5093573;28;20455;-66
2022/04/17 11:42:46;;;;;;;6.80;3.55;;;15.70;74.10;;;;;;5090496;28;20024;-66
2022/04/17 11:45:16;;;;;;;7.82;4.55;;;15.70;73.20;;;;;;5092361;28;20032;-66
2022/04/17 11:47:43;;;;;;;6.25;3.65;;;15.70;72.90;;;;;;5091553;28;20383;-67
2022/04/17 11:50:19;;;;;;;4.93;2.45;;;15.80;71.90;;;;;;5090197;28;20544;-66
2022/04/17 11:52:49;;;;;;;8.88;4.00;;;15.90;74.90;;;;;;5090621;28;20348;-67
2022/04/17 11:55:14;;;;;;;6.68;4.22;;;15.90;74.20;;;;;;5094470;28;20578;-67
2022/04/17 11:57:40;;;;;;;6.10;3.35;;;15.90;71.70;;;;;;5092429;28;20177;-67
2022/04/17 12:00:07;;;;;;;11.50;5.10;;;16.00;71.50;;;;;;5092550;28;20044;-67
2022/04/17 12:02:33;;;;;;;7.50;3.67;;;16.10;70.40;;;;;;5091771;28;20047;-66
2022/04/17 12:05:07;;;;;;;9.32;4.07;;;16.10;71.40;;;;;;5091442;28;20027;-67
2022/04/17 12:07:33;;;;;;;6.00;3.35;;;16.20;71.40;;;;;;5092166;28;20047;-67
2022/04/17 12:10:11;;;;;;;6.20;3.35;;;16.20;72.40;;;;;;5093417;28;20082;-67
2022/04/17 12:12:45;;;;;;;7.82;4.13;;;16.20;71.70;;;;;;5096012;28;20023;-67
2022/04/17 12:15:12;;;;;;;7.05;3.25;;;16.30;71.20;;;;;;5097951;28;20032;-67
2022/04/17 12:17:39;;;;;;;4.88;3.28;;;16.30;70.50;;;;;;5094829;28;20115;-67
2022/04/17 12:20:08;;;;;;;7.88;4.50;;;16.30;72.30;;;;;;5094427;28;20032;-67
2022/04/17 12:22:38;;;;;;;7.22;4.47;;;16.40;72.30;;;;;;5096388;28;20040;-67
2022/04/17 12:25:13;;;;;;;9.68;4.80;;;16.40;71.90;;;;;;5096806;28;20387;-67
2022/04/17 12:27:39;;;;;;;8.90;4.70;;;16.50;71.50;;;;;;5098557;28;20562;-66
2022/04/17 12:30:05;;;;;;;9.32;4.63;;;16.50;71.70;;;;;;5090008;28;20111;-67
2022/04/17 12:32:31;;;;;;;7.43;4.32;;;16.50;70.70;;;;;;5095928;28;20028;-70
2022/04/17 12:35:03;;;;;;;8.93;3.50;;;16.60;68.80;;;;;;5096440;28;20031;-68
2022/04/17 12:37:36;;;;;;;8.35;4.25;;;16.60;67.80;;;;;;5092504;28;20104;-67
2022/04/17 12:40:20;;;;;;;7.53;3.78;;;16.60;67.90;;;;;;5094215;28;20482;-67
2022/04/17 12:42:49;;;;;;;6.97;3.63;;;16.70;67.60;;;;;;5092810;28;20032;-68
2022/04/17 12:45:24;;;;;;;7.13;4.05;;;16.70;67.70;;;;;;5093667;28;20053;-68
2022/04/17 12:48:07;;;;;;;6.95;4.10;;;16.70;69.70;;;;;;5095088;28;20041;-68
2022/04/17 12:50:33;;;;;;;10.77;3.72;;;16.80;68.30;;;;;;5091748;28;20032;-68